createdAt,value
2018-08-07T00:04:08.042Z,14.66
2018-08-07T00:10:03.044Z,18.78
2018-08-07T00:15:58.037Z,16.24
2018-08-07T00:21:53.067Z,17.99
2018-08-07T00:27:48.053Z,16.61
2018-08-07T00:33:43.067Z,16.13
2018-08-07T00:39:38.091Z,19.28
2018-08-07T00:45:33.067Z,18.66
2018-08-07T00:51:28.156Z,17.67
2018-08-07T00:57:23.099Z,16.6
2018-08-07T01:03:18.117Z,20.03
2018-08-07T01:09:13.071Z,16.38
2018-08-07T01:15:08.083Z,14.75
2018-08-07T01:21:03.087Z,18.4
2018-08-07T01:26:58.148Z,18.13
2018-08-07T01:32:53.147Z,17.31
2018-08-07T01:38:48.151Z,18.13
2018-08-07T01:44:43.123Z,16.03
2018-08-07T01:50:38.113Z,19.05
2018-08-07T01:56:33.143Z,17.13
2018-08-07T02:02:28.133Z,17.93
2018-08-07T02:08:23.131Z,20
2018-08-07T02:14:18.133Z,18.51
2018-08-07T02:20:13.137Z,18.07
2018-08-07T02:26:08.150Z,18.62
2018-08-07T02:32:03.153Z,17.46
2018-08-07T02:37:58.177Z,17.43
2018-08-07T02:43:53.148Z,19.29
2018-08-07T02:49:48.155Z,24.22
2018-08-07T02:55:43.165Z,18.37
2018-08-07T03:01:38.180Z,19.78
2018-08-07T03:07:33.167Z,19.64
2018-08-07T03:13:28.248Z,20.65
2018-08-07T03:19:23.200Z,18.72
2018-08-07T03:25:18.179Z,24.13
2018-08-07T03:31:13.214Z,23.47
2018-08-07T03:37:08.222Z,21.11
2018-08-07T03:43:03.244Z,20.29
2018-08-07T03:48:58.245Z,20.7
2018-08-07T03:54:53.239Z,20.53
2018-08-07T04:00:48.266Z,19.37
2018-08-07T04:06:43.202Z,23.13
2018-08-07T04:12:38.205Z,22.53
2018-08-07T04:18:33.237Z,23.17
2018-08-07T04:24:28.238Z,22.05
2018-08-07T04:30:23.280Z,20.87
2018-08-07T04:36:18.246Z,23.05
2018-08-07T04:42:13.230Z,19.45
2018-08-07T04:48:08.270Z,20.7
2018-08-07T04:54:03.250Z,23.82
2018-08-07T04:59:58.239Z,21.69
2018-08-07T05:05:53.247Z,22.09
2018-08-07T05:11:48.257Z,22.16
2018-08-07T05:17:43.305Z,22.12
2018-08-07T05:23:38.290Z,20.43
2018-08-07T05:29:33.264Z,20.2
2018-08-07T05:35:28.288Z,21.46
2018-08-07T05:41:23.407Z,19.79
2018-08-07T05:47:18.270Z,20.09
2018-08-07T05:53:13.322Z,21.63
2018-08-07T05:59:08.349Z,24.55
2018-08-07T06:05:03.292Z,22.18
2018-08-07T06:10:58.296Z,22.29
2018-08-07T06:16:53.305Z,22.37
2018-08-07T06:22:48.324Z,21.56
2018-08-07T06:28:43.412Z,20.34
2018-08-07T06:34:38.313Z,23.49
2018-08-07T06:40:33.351Z,22.12
2018-08-07T06:46:28.323Z,21.46
2018-08-07T06:52:23.330Z,20.94
2018-08-07T06:58:18.400Z,19.5
2018-08-07T07:04:13.347Z,19.97
2018-08-07T07:10:08.346Z,20.64
2018-08-07T07:16:03.359Z,19.66
2018-08-07T07:21:58.336Z,15.33
2018-08-07T07:27:53.367Z,19.16
2018-08-07T07:33:48.405Z,17.06
2018-08-07T07:39:43.349Z,15.81
2018-08-07T07:45:38.384Z,16.99
2018-08-07T07:51:33.349Z,14.84
2018-08-07T07:57:28.392Z,14.58
2018-08-07T08:03:23.390Z,15.15
2018-08-07T08:09:18.385Z,13.54
2018-08-07T08:15:13.390Z,13.42
2018-08-07T08:21:08.403Z,15.24
2018-08-07T08:27:03.394Z,13.29
2018-08-07T08:32:58.405Z,14.75
2018-08-07T08:38:53.411Z,16.06
2018-08-07T08:44:48.411Z,16.23
2018-08-07T08:50:43.522Z,15.23
2018-08-07T08:56:38.464Z,15.03
2018-08-07T09:02:33.433Z,13.48
2018-08-07T09:08:28.433Z,14.15
2018-08-07T09:14:23.481Z,12.36
2018-08-07T09:20:18.435Z,13.78
2018-08-07T09:26:13.623Z,15.56
2018-08-07T09:32:08.435Z,13.94
2018-08-07T09:38:03.448Z,16.21
2018-08-07T09:43:58.471Z,15.9
2018-08-07T09:49:53.601Z,12.68
2018-08-07T09:55:48.495Z,13.43
2018-08-07T10:01:43.509Z,13.64
2018-08-07T10:07:38.530Z,13.3
2018-08-07T10:13:33.549Z,14.08
2018-08-07T10:19:28.513Z,14.01
2018-08-07T10:25:23.484Z,13.36
2018-08-07T10:31:18.535Z,14.59
2018-08-07T10:37:13.524Z,12.75
2018-08-07T10:43:08.619Z,13.4
2018-08-07T10:49:03.514Z,11.38
2018-08-07T10:54:58.565Z,11.47
2018-08-07T11:00:53.542Z,15.17
2018-08-07T11:06:48.569Z,12.42
2018-08-07T11:12:43.521Z,13.74
2018-08-07T11:18:38.546Z,12.17
2018-08-07T11:24:33.646Z,12.85
2018-08-07T11:30:28.574Z,10.75
2018-08-07T11:36:23.543Z,11.64
2018-08-07T11:42:18.561Z,11.05
2018-08-07T11:48:13.572Z,10.52
2018-08-07T11:54:08.614Z,13.05
2018-08-07T12:00:03.579Z,13.55
2018-08-07T12:05:58.594Z,10.96
2018-08-07T12:11:53.567Z,10.12
2018-08-07T12:17:48.603Z,9.94
2018-08-07T12:23:43.585Z,9.08
2018-08-07T12:29:38.611Z,8.73
2018-08-07T12:35:33.596Z,8.64
2018-08-07T12:41:28.610Z,8.62
2018-08-07T12:47:23.609Z,8.27
2018-08-07T12:53:18.644Z,10.3
2018-08-07T12:59:13.643Z,9.1
2018-08-07T13:05:08.618Z,8.01
2018-08-07T13:11:03.649Z,8.62
2018-08-07T13:16:58.649Z,9.75
2018-08-07T13:22:53.647Z,9.52
2018-08-07T13:28:48.640Z,10.92
2018-08-07T13:34:43.683Z,13.62
2018-08-07T13:40:38.682Z,13.66
2018-08-07T13:46:33.643Z,12.31
2018-08-07T13:52:28.655Z,14.9
2018-08-07T13:58:23.684Z,14.72
2018-08-07T14:04:18.676Z,13.08
2018-08-07T14:10:13.722Z,11.6
2018-08-07T14:16:08.706Z,11.62
2018-08-07T14:22:03.715Z,13.09
2018-08-07T14:27:58.711Z,12.9
2018-08-07T14:33:53.702Z,12.56
2018-08-07T14:39:48.704Z,10.93
2018-08-07T14:45:43.713Z,12.01
2018-08-07T14:51:38.715Z,12.47
2018-08-07T14:57:33.737Z,9.83
2018-08-07T15:03:28.760Z,10.94
2018-08-07T15:09:23.789Z,7.61
2018-08-07T15:15:18.718Z,8
2018-08-07T15:21:13.801Z,8.56
2018-08-07T15:27:08.728Z,7.77
2018-08-07T15:33:03.760Z,7.53
2018-08-07T15:38:58.756Z,7.13
2018-08-07T15:44:53.761Z,7.41
2018-08-07T15:50:48.827Z,9.2
2018-08-07T15:56:43.799Z,6.13
2018-08-07T16:02:38.791Z,6.57
2018-08-07T16:08:33.783Z,6.03
2018-08-07T16:14:28.784Z,6.47
2018-08-07T16:20:23.795Z,7.19
2018-08-07T16:26:18.794Z,7.72
2018-08-07T16:32:13.786Z,8.37
2018-08-07T16:38:08.798Z,6.04
2018-08-07T16:44:03.800Z,6.77
2018-08-07T16:49:58.812Z,5.64
2018-08-07T16:55:53.822Z,6.07
2018-08-07T17:01:48.811Z,5.02
2018-08-07T17:07:43.837Z,10.8
2018-08-07T17:13:38.825Z,8.94
2018-08-07T17:19:33.830Z,9.63
2018-08-07T17:25:28.834Z,8.28
2018-08-07T17:31:23.841Z,6.3
2018-08-07T17:37:18.846Z,4.31
2018-08-07T17:43:13.920Z,3.39
2018-08-07T17:49:08.847Z,3.37
2018-08-07T17:55:04.047Z,3.13
2018-08-07T18:00:58.859Z,4.95
2018-08-07T18:06:53.896Z,5.17
2018-08-07T18:12:48.927Z,6.2
2018-08-07T18:18:43.977Z,6.59
2018-08-07T18:24:38.909Z,4.37
2018-08-07T18:30:33.886Z,5.04
2018-08-07T18:36:28.877Z,4.39
2018-08-07T18:42:23.898Z,6.44
2018-08-07T18:48:18.908Z,8.14
2018-08-07T18:54:13.907Z,5.46
2018-08-07T19:00:08.979Z,7.16
2018-08-07T19:06:03.910Z,7.77
2018-08-07T19:11:58.920Z,5.64
2018-08-07T19:17:53.911Z,5.02
2018-08-07T19:23:48.911Z,5.31
2018-08-07T19:29:43.926Z,5.55
2018-08-07T19:35:38.918Z,7.23
2018-08-07T19:41:33.974Z,5.68
2018-08-07T19:47:28.974Z,4.5
2018-08-07T19:53:23.972Z,6.93
2018-08-07T19:59:18.948Z,6.5
2018-08-07T20:05:13.945Z,6.05
2018-08-07T20:11:08.978Z,6.45
2018-08-07T20:17:04.051Z,6.21
2018-08-07T20:22:58.995Z,6.07
2018-08-07T20:28:53.955Z,6.46
2018-08-07T20:34:48.970Z,8.66
2018-08-07T20:40:43.972Z,6.91
2018-08-07T20:46:38.990Z,7.23
2018-08-07T20:52:34.006Z,6.89
2018-08-07T20:58:28.984Z,6.84
2018-08-07T21:04:23.997Z,5.88
2018-08-07T21:10:19.012Z,8.51
2018-08-07T21:16:14.079Z,9.06
2018-08-07T21:22:08.994Z,7.36
2018-08-07T21:28:04.027Z,10.83
2018-08-07T21:33:59.147Z,8.01
2018-08-07T21:39:54.016Z,7.87
2018-08-07T21:45:49.028Z,10.32
2018-08-07T21:51:43.999Z,9.34
2018-08-07T21:57:39.024Z,10.34
2018-08-07T22:03:34.080Z,11.69
2018-08-07T22:09:29.021Z,8.44
2018-08-07T22:15:24.065Z,11.37
2018-08-07T22:21:19.046Z,10.06
2018-08-07T22:27:14.031Z,9.25
2018-08-07T22:33:09.075Z,11.9
2018-08-07T22:39:04.082Z,8.89
2018-08-07T22:44:59.085Z,9.22
2018-08-07T22:50:54.078Z,9.24
2018-08-07T22:56:49.083Z,7.65
2018-08-07T23:02:44.169Z,10.08
2018-08-07T23:08:39.115Z,11.24
2018-08-07T23:14:34.074Z,7.49
2018-08-07T23:20:29.083Z,9.3
2018-08-07T23:26:24.089Z,9.09
2018-08-07T23:32:19.110Z,7.43
2018-08-07T23:38:14.092Z,10.01
2018-08-07T23:44:09.136Z,9.09
2018-08-07T23:50:04.120Z,8.03
2018-08-07T23:55:59.135Z,9.59
